createdAt,value
2023-03-15T00:00:37.139Z,4.5
2023-03-15T00:01:40.515Z,4.5
2023-03-15T00:02:44.409Z,4.5
2023-03-15T00:03:47.394Z,4.5
2023-03-15T00:04:50.822Z,4.5
2023-03-15T00:05:54.582Z,4.5
2023-03-15T00:06:57.567Z,4.5
2023-03-15T00:08:05.006Z,4.5
2023-03-15T00:09:07.832Z,4.5
2023-03-15T00:10:10.835Z,4.5
2023-03-15T00:11:13.024Z,4.5
2023-03-15T00:12:15.823Z,4.6
2023-03-15T00:13:19.197Z,4.6
2023-03-15T00:14:22.912Z,4.6
2023-03-15T00:15:25.979Z,4.6
2023-03-15T00:16:28.688Z,4.6
2023-03-15T00:17:32.164Z,4.6
2023-03-15T00:18:35.603Z,4.6
2023-03-15T00:19:38.671Z,4.6
2023-03-15T00:20:41.371Z,4.6
2023-03-15T00:21:44.162Z,4.5
2023-03-15T00:22:47.988Z,4.5
2023-03-15T00:23:51.943Z,4.5
2023-03-15T00:24:55.378Z,4.5
2023-03-15T00:25:58.094Z,4.6
2023-03-15T00:27:00.329Z,4.5
2023-03-15T00:28:03.135Z,4.5
2023-03-15T00:29:06.284Z,4.5
2023-03-15T00:30:09.292Z,4.5
2023-03-15T00:31:12.730Z,4.5
2023-03-15T00:32:16.596Z,4.5
2023-03-15T00:33:19.945Z,4.5
2023-03-15T00:34:23.403Z,4.5
2023-03-15T00:35:25.957Z,4.5
2023-03-15T00:36:28.779Z,4.5
2023-03-15T00:37:31.558Z,4.5
2023-03-15T00:38:34.323Z,4.4
2023-03-15T00:39:38.559Z,4.5
2023-03-15T00:40:42.027Z,4.4
2023-03-15T00:41:45.417Z,4.4
2023-03-15T00:42:48.501Z,4.5
2023-03-15T00:43:51.897Z,4.4
2023-03-15T00:44:55.646Z,4.4
2023-03-15T00:45:59.154Z,4.4
2023-03-15T00:47:01.683Z,4.4
2023-03-15T00:48:04.837Z,4.4
2023-03-15T00:49:07.291Z,4.4
2023-03-15T00:50:10.018Z,4.4
2023-03-15T00:51:12.501Z,4.4
2023-03-15T00:52:15.610Z,4.4
2023-03-15T00:53:18.449Z,4.4
2023-03-15T00:54:22.104Z,4.4
2023-03-15T00:55:25.985Z,4.4
2023-03-15T00:56:29.170Z,4.4
2023-03-15T00:57:32.500Z,4.4
2023-03-15T00:58:35.673Z,4.4
2023-03-15T00:59:39.359Z,4.4
2023-03-15T01:00:42.469Z,4.4
2023-03-15T01:01:45.656Z,4.4
2023-03-15T01:02:49.253Z,4.4
2023-03-15T01:03:52.635Z,4.4
2023-03-15T01:04:56.029Z,4.4
2023-03-15T01:05:59.186Z,4.4
2023-03-15T01:07:02.259Z,4.3
2023-03-15T01:08:05.422Z,4.3
2023-03-15T01:09:08.165Z,4.3
2023-03-15T01:10:11.217Z,4.3
2023-03-15T01:11:15.381Z,4.3
2023-03-15T01:12:18.377Z,4.3
2023-03-15T01:13:21.849Z,4.3
2023-03-15T01:14:24.607Z,4.2
2023-03-15T01:15:27.138Z,4.2
2023-03-15T01:16:31.157Z,4.2
2023-03-15T01:17:34.107Z,4.2
2023-03-15T01:18:38.141Z,4.2
2023-03-15T01:19:40.894Z,4.2
2023-03-15T01:20:44.298Z,4.2
2023-03-15T01:21:47.587Z,4.2
2023-03-15T01:22:50.003Z,4.2
2023-03-15T01:23:53.642Z,4.2
2023-03-15T01:24:56.111Z,4.2
2023-03-15T01:25:59.220Z,4.2
2023-03-15T01:27:03.350Z,4.2
2023-03-15T01:28:06.153Z,4.2
2023-03-15T01:29:09.150Z,4.2
2023-03-15T01:30:11.973Z,4.2
2023-03-15T01:31:15.627Z,4.2
2023-03-15T01:32:19.747Z,4.2
2023-03-15T01:33:23.954Z,4.2
2023-03-15T01:34:27.055Z,4.2
2023-03-15T01:35:30.226Z,4.2
2023-03-15T01:36:33.833Z,4.2
2023-03-15T01:37:37.114Z,4.2
2023-03-15T01:38:40.305Z,4.2
2023-03-15T01:39:43.364Z,4.2
2023-03-15T01:40:46.772Z,4.1
2023-03-15T01:41:49.827Z,4.2
2023-03-15T01:42:54.026Z,4.1
2023-03-15T01:43:57.818Z,4.2
2023-03-15T01:45:00.626Z,4.1
2023-03-15T01:46:03.679Z,4.2
2023-03-15T01:47:07.271Z,4.2
2023-03-15T01:48:10.101Z,4.2
2023-03-15T01:49:13.579Z,4.2
2023-03-15T01:50:16.703Z,4.1
2023-03-15T01:51:20.083Z,4.2
2023-03-15T01:52:23.473Z,4.2
2023-03-15T01:53:26.561Z,4.1
2023-03-15T01:54:29.311Z,4.1
2023-03-15T01:55:32.389Z,4.1
2023-03-15T01:56:35.548Z,4.1
2023-03-15T01:57:38.989Z,4.1
2023-03-15T01:58:43.299Z,4.1
2023-03-15T01:59:46.379Z,4.1
2023-03-15T02:00:49.317Z,4.1
2023-03-15T02:01:52.632Z,4.1
2023-03-15T02:02:56.143Z,4.1
2023-03-15T02:03:58.580Z,4.1
2023-03-15T02:05:01.036Z,4.1
2023-03-15T02:06:04.198Z,4.1
2023-03-15T02:07:07.190Z,4
2023-03-15T02:08:10.217Z,4
2023-03-15T02:09:13.976Z,4
2023-03-15T02:10:17.138Z,4
2023-03-15T02:11:20.798Z,4
2023-03-15T02:12:23.613Z,4.1
2023-03-15T02:13:26.780Z,4.1
2023-03-15T02:14:31.083Z,4.1
2023-03-15T02:15:34.179Z,4.1
2023-03-15T02:16:37.078Z,4.1
2023-03-15T02:17:40.462Z,4
2023-03-15T02:18:43.267Z,4
2023-03-15T02:19:46.075Z,4
2023-03-15T02:20:49.073Z,4
2023-03-15T02:21:52.595Z,4
2023-03-15T02:22:55.327Z,4
2023-03-15T02:23:59.266Z,4
2023-03-15T02:25:02.609Z,4
2023-03-15T02:26:05.990Z,4
2023-03-15T02:27:08.565Z,4
2023-03-15T02:28:11.697Z,4
2023-03-15T02:29:14.852Z,3.9
2023-03-15T02:30:18.835Z,3.9
2023-03-15T02:31:22.076Z,3.9
2023-03-15T02:32:25.511Z,3.9
2023-03-15T02:33:28.670Z,3.9
2023-03-15T02:34:31.954Z,3.9
2023-03-15T02:35:35.260Z,3.9
2023-03-15T02:36:38.149Z,3.9
2023-03-15T02:37:41.661Z,3.9
2023-03-15T02:38:45.005Z,3.9
2023-03-15T02:39:48.007Z,3.9
2023-03-15T02:40:51.740Z,3.9
2023-03-15T02:41:55.486Z,3.9
2023-03-15T02:42:58.651Z,3.9
2023-03-15T02:44:02.462Z,3.8
2023-03-15T02:45:05.968Z,3.8
2023-03-15T02:46:10.106Z,3.8
2023-03-15T02:47:13.807Z,3.9
2023-03-15T02:48:16.594Z,3.8
2023-03-15T02:49:19.829Z,3.8
2023-03-15T02:50:22.268Z,3.8
2023-03-15T02:51:25.975Z,3.8
2023-03-15T02:52:28.446Z,3.8
2023-03-15T02:53:31.874Z,3.8
2023-03-15T02:54:34.596Z,3.8
2023-03-15T02:55:37.888Z,3.8
2023-03-15T02:56:40.811Z,3.8
2023-03-15T02:57:43.601Z,3.8
2023-03-15T02:58:46.477Z,3.8
2023-03-15T02:59:49.607Z,3.8
2023-03-15T03:00:52.800Z,3.8
2023-03-15T03:01:57.457Z,3.8
2023-03-15T03:03:00.743Z,3.8
2023-03-15T03:04:02.497Z,3.8
2023-03-15T03:05:05.548Z,3.8
2023-03-15T03:06:07.984Z,3.8
2023-03-15T03:07:10.734Z,3.8
2023-03-15T03:08:13.830Z,3.8
2023-03-15T03:09:16.969Z,3.7
2023-03-15T03:10:20.428Z,3.7
2023-03-15T03:11:24.236Z,3.7
2023-03-15T03:12:27.499Z,3.8
2023-03-15T03:13:29.368Z,3.7
2023-03-15T03:14:33.078Z,3.7
2023-03-15T03:15:36.671Z,3.8
2023-03-15T03:16:39.717Z,3.8
2023-03-15T03:17:44.017Z,3.8
2023-03-15T03:18:46.632Z,3.7
2023-03-15T03:19:49.065Z,3.7
2023-03-15T03:20:51.554Z,3.7
2023-03-15T03:21:54.683Z,3.7
2023-03-15T03:22:57.129Z,3.7
2023-03-15T03:24:00.572Z,3.8
2023-03-15T03:25:03.600Z,3.8
2023-03-15T03:26:06.316Z,3.8
2023-03-15T03:27:09.096Z,3.8
2023-03-15T03:28:12.607Z,3.8
2023-03-15T03:29:16.233Z,3.8
2023-03-15T03:30:20.199Z,3.8
2023-03-15T03:31:23.806Z,3.8
2023-03-15T03:32:27.040Z,3.8
2023-03-15T03:33:31.425Z,3.8
2023-03-15T03:34:34.541Z,3.8
2023-03-15T03:35:37.872Z,3.8
2023-03-15T03:36:41.101Z,3.8
2023-03-15T03:37:44.086Z,3.9
2023-03-15T03:38:46.633Z,3.9
2023-03-15T03:39:49.725Z,3.8
2023-03-15T03:40:52.143Z,3.8
2023-03-15T03:41:55.480Z,3.9
2023-03-15T03:42:58.447Z,3.9
2023-03-15T03:44:01.188Z,3.9
2023-03-15T03:45:04.648Z,3.9
2023-03-15T03:46:07.371Z,3.9
2023-03-15T03:47:11.403Z,3.9
2023-03-15T03:48:14.282Z,3.9
2023-03-15T03:49:18.463Z,3.9
2023-03-15T03:50:21.591Z,3.9
2023-03-15T03:51:24.920Z,3.9
2023-03-15T03:52:28.322Z,3.9
2023-03-15T03:53:31.055Z,4
2023-03-15T03:54:34.344Z,4
2023-03-15T03:55:37.140Z,4
2023-03-15T03:56:39.915Z,4
2023-03-15T03:57:43.503Z,4
2023-03-15T03:58:46.292Z,4.1
2023-03-15T03:59:49.142Z,4.1
2023-03-15T04:00:51.564Z,4.1
2023-03-15T04:01:54.920Z,4.1
2023-03-15T04:02:57.760Z,4.1
2023-03-15T04:04:01.138Z,4.1
2023-03-15T04:05:05.367Z,4.1
2023-03-15T04:06:08.800Z,4.1
2023-03-15T04:07:11.883Z,4.1
2023-03-15T04:08:17.319Z,4.2
2023-03-15T04:09:20.678Z,4.1
2023-03-15T04:10:23.743Z,4.1
2023-03-15T04:11:26.873Z,4.1
2023-03-15T04:12:30.762Z,4.2
2023-03-15T04:13:34.480Z,4.2
2023-03-15T04:14:37.667Z,4.2
2023-03-15T04:15:41.111Z,4.2
2023-03-15T04:16:44.113Z,4.2
2023-03-15T04:17:46.916Z,4.2
2023-03-15T04:18:50.030Z,4.2
2023-03-15T04:19:53.268Z,4.2
2023-03-15T04:20:57.193Z,4.2
2023-03-15T04:22:00.269Z,4.2
2023-03-15T04:23:03.719Z,4.2
2023-03-15T04:24:06.472Z,4.2
2023-03-15T04:25:09.267Z,4.2
2023-03-15T04:26:12.312Z,4.2
2023-03-15T04:27:16.092Z,4.2
2023-03-15T04:28:18.809Z,4.2
2023-03-15T04:29:21.901Z,4.2
2023-03-15T04:30:24.970Z,4.2
2023-03-15T04:31:28.383Z,4.3
2023-03-15T04:32:31.315Z,4.3
2023-03-15T04:33:34.800Z,4.3
2023-03-15T04:34:38.921Z,4.3
2023-03-15T04:35:42.953Z,4.3
2023-03-15T04:36:47.305Z,4.3
2023-03-15T04:37:50.207Z,4.3
2023-03-15T04:38:52.922Z,4.3
2023-03-15T04:39:56.402Z,4.3
2023-03-15T04:40:59.681Z,4.3
2023-03-15T04:42:02.699Z,4.3
2023-03-15T04:43:04.973Z,4.3
2023-03-15T04:44:08.416Z,4.3
2023-03-15T04:45:10.969Z,4.3
2023-03-15T04:46:13.516Z,4.3
2023-03-15T04:47:16.830Z,4.3
2023-03-15T04:48:19.840Z,4.3
2023-03-15T04:49:23.181Z,4.3
2023-03-15T04:50:25.903Z,4.3
2023-03-15T04:51:29.100Z,4.3
2023-03-15T04:52:33.225Z,4.3
2023-03-15T04:53:36.227Z,4.3
2023-03-15T04:54:39.391Z,4.3
2023-03-15T04:55:42.540Z,4.3
2023-03-15T04:56:45.965Z,4.3
2023-03-15T04:57:48.504Z,4.3
2023-03-15T04:58:51.847Z,4.3
2023-03-15T04:59:54.512Z,4.3
2023-03-15T05:00:58.129Z,4.3
2023-03-15T05:02:04.608Z,4.2
2023-03-15T05:03:07.806Z,4.2
2023-03-15T05:04:11.192Z,4.2
2023-03-15T05:05:14.168Z,4.2
2023-03-15T05:06:16.976Z,4.2
2023-03-15T05:07:20.028Z,4.2
2023-03-15T05:08:24.187Z,4.2
2023-03-15T05:09:26.970Z,4.2
2023-03-15T05:10:29.810Z,4.2
2023-03-15T05:11:32.877Z,4.2
2023-03-15T05:12:35.923Z,4.2
2023-03-15T05:13:39.409Z,4.2
2023-03-15T05:14:42.762Z,4.2
2023-03-15T05:15:45.508Z,4.2
2023-03-15T05:16:48.396Z,4.3
2023-03-15T05:17:51.740Z,4.3
2023-03-15T05:18:55.075Z,4.3
2023-03-15T05:19:58.439Z,4.3
2023-03-15T05:21:01.423Z,4.3
2023-03-15T05:22:04.562Z,4.3
2023-03-15T05:23:08.372Z,4.3
2023-03-15T05:24:12.571Z,4.3
2023-03-15T05:25:15.023Z,4.3
2023-03-15T05:26:18.668Z,4.3
2023-03-15T05:27:20.915Z,4.3
2023-03-15T05:28:23.956Z,4.3
2023-03-15T05:29:27.137Z,4.3
2023-03-15T05:30:30.472Z,4.3
2023-03-15T05:31:33.778Z,4.3
2023-03-15T05:32:36.777Z,4.3
2023-03-15T05:33:39.919Z,4.3
2023-03-15T05:34:42.429Z,4.3
2023-03-15T05:35:45.771Z,4.3
2023-03-15T05:36:49.402Z,4.3
2023-03-15T05:37:51.820Z,4.3
2023-03-15T05:38:54.939Z,4.3
2023-03-15T05:39:59.289Z,4.3
2023-03-15T05:41:02.101Z,4.3
2023-03-15T05:42:05.121Z,4.3
2023-03-15T05:43:07.987Z,4.3
2023-03-15T05:44:11.632Z,4.3
2023-03-15T05:45:15.094Z,4.3
2023-03-15T05:46:18.375Z,4.3
2023-03-15T05:47:21.334Z,4.3
2023-03-15T05:48:24.369Z,4.3
2023-03-15T05:49:27.279Z,4.3
2023-03-15T05:50:30.730Z,4.3
2023-03-15T05:51:33.687Z,4.3
2023-03-15T05:52:36.124Z,4.3
2023-03-15T05:53:39.890Z,4.3
2023-03-15T05:54:43.426Z,4.3
2023-03-15T05:55:47.573Z,4.3
2023-03-15T05:56:51.051Z,4.3
2023-03-15T05:57:53.759Z,4.3
2023-03-15T05:58:56.549Z,4.2
2023-03-15T06:00:00.281Z,4.2
2023-03-15T06:01:03.564Z,4.2
2023-03-15T06:02:06.390Z,4.2
2023-03-15T06:03:09.475Z,4.2
2023-03-15T06:04:13.143Z,4.2
2023-03-15T06:05:16.057Z,4.2
2023-03-15T06:06:20.061Z,4.2
2023-03-15T06:07:23.444Z,4.2
2023-03-15T06:08:27.149Z,4.2
2023-03-15T06:09:30.360Z,4.2
2023-03-15T06:10:33.791Z,4.3
2023-03-15T06:11:38.493Z,4.3
2023-03-15T06:12:41.288Z,4.2
2023-03-15T06:13:44.113Z,4.2
2023-03-15T06:14:47.288Z,4.2
2023-03-15T06:15:49.802Z,4.2
2023-03-15T06:16:53.170Z,4.3
2023-03-15T06:17:57.227Z,4.3
2023-03-15T06:19:00.746Z,4.3
2023-03-15T06:20:04.018Z,4.3
2023-03-15T06:21:07.291Z,4.4
2023-03-15T06:22:10.016Z,4.4
2023-03-15T06:23:13.488Z,4.4
2023-03-15T06:24:16.675Z,4.4
2023-03-15T06:25:20.033Z,4.4
2023-03-15T06:26:23.798Z,4.4
2023-03-15T06:27:27.937Z,4.4
2023-03-15T06:28:31.008Z,4.4
2023-03-15T06:29:34.017Z,4.4
2023-03-15T06:30:37.273Z,4.5
2023-03-15T06:31:40.345Z,4.5
2023-03-15T06:32:43.965Z,4.5
2023-03-15T06:33:47.045Z,4.5
2023-03-15T06:34:50.429Z,4.5
2023-03-15T06:35:53.741Z,4.5
2023-03-15T06:36:56.559Z,4.5
2023-03-15T06:38:00.039Z,4.4
2023-03-15T06:39:02.583Z,4.4
2023-03-15T06:40:06.010Z,4.4
2023-03-15T06:41:09.448Z,4.4
2023-03-15T06:42:12.082Z,4.4
2023-03-15T06:43:16.262Z,4.4
2023-03-15T06:44:18.412Z,4.3
2023-03-15T06:45:22.419Z,4.3
2023-03-15T06:46:26.070Z,4.3
2023-03-15T06:47:28.972Z,4.3
2023-03-15T06:48:32.175Z,4.3
2023-03-15T06:49:35.187Z,4.3
2023-03-15T06:50:48.574Z,4.3
2023-03-15T06:51:51.942Z,4.3
2023-03-15T06:52:55.650Z,4.3
2023-03-15T06:53:59.088Z,4.3
2023-03-15T06:55:02.472Z,4.3
2023-03-15T06:56:05.566Z,4.4
2023-03-15T06:57:08.545Z,4.3
2023-03-15T06:58:11.619Z,4.4
2023-03-15T06:59:15.894Z,4.4
2023-03-15T07:00:19.514Z,4.4
2023-03-15T07:01:23.020Z,4.4
2023-03-15T07:02:26.762Z,4.4
2023-03-15T07:03:30.371Z,4.4
2023-03-15T07:04:33.723Z,4.4
2023-03-15T07:05:36.784Z,4.4
2023-03-15T07:06:39.864Z,4.3
2023-03-15T07:07:43.513Z,4.3
2023-03-15T07:08:46.838Z,4.4
2023-03-15T07:09:49.424Z,4.4
2023-03-15T07:10:52.504Z,4.4
2023-03-15T07:11:55.626Z,4.4
2023-03-15T07:12:58.330Z,4.4
2023-03-15T07:14:01.213Z,4.5
2023-03-15T07:15:05.144Z,4.4
2023-03-15T07:16:09.307Z,4.5
2023-03-15T07:17:12.534Z,4.5
2023-03-15T07:18:16.259Z,4.5
2023-03-15T07:19:20.039Z,4.6
2023-03-15T07:20:23.439Z,4.6
2023-03-15T07:21:26.174Z,4.6
2023-03-15T07:22:29.919Z,4.6
2023-03-15T07:23:33.575Z,4.6
2023-03-15T07:24:36.611Z,4.6
2023-03-15T07:25:56.072Z,4.6
2023-03-15T07:26:59.750Z,4.6
2023-03-15T07:28:03.020Z,4.7
2023-03-15T07:29:06.487Z,4.7
2023-03-15T07:30:10.368Z,4.7
2023-03-15T07:31:13.214Z,4.7
2023-03-15T07:32:16.433Z,4.7
2023-03-15T07:33:20.298Z,4.7
2023-03-15T07:34:23.527Z,4.7
2023-03-15T07:35:26.635Z,4.8
2023-03-15T07:36:30.185Z,4.8
2023-03-15T07:37:33.458Z,4.8
2023-03-15T07:38:36.747Z,4.8
2023-03-15T07:39:39.745Z,4.8
2023-03-15T07:40:42.822Z,4.8
2023-03-15T07:41:45.905Z,4.8
2023-03-15T07:42:49.073Z,4.9
2023-03-15T07:43:52.149Z,4.9
2023-03-15T07:44:55.711Z,4.9
2023-03-15T07:45:59.846Z,4.9
2023-03-15T07:47:03.184Z,5
2023-03-15T07:48:07.013Z,5
2023-03-15T07:49:10.516Z,5
2023-03-15T07:50:17.605Z,5
2023-03-15T07:51:20.423Z,5
2023-03-15T07:52:23.224Z,5.1
2023-03-15T07:53:25.971Z,5.1
2023-03-15T07:54:30.338Z,5.1
2023-03-15T07:55:34.124Z,5.1
2023-03-15T07:56:37.829Z,5.2
2023-03-15T07:57:41.203Z,5.2
2023-03-15T07:58:44.920Z,5.2
2023-03-15T07:59:48.375Z,5.2
2023-03-15T08:00:51.496Z,5.2
2023-03-15T08:01:55.852Z,5.2
2023-03-15T08:02:59.674Z,5.2
2023-03-15T08:04:03.320Z,5.3
2023-03-15T08:05:06.338Z,5.3
2023-03-15T08:06:09.652Z,5.3
2023-03-15T08:07:13.110Z,5.3
2023-03-15T08:08:16.415Z,5.4
2023-03-15T08:09:19.871Z,5.4
2023-03-15T08:10:22.937Z,5.5
2023-03-15T08:11:26.590Z,5.5
2023-03-15T08:12:29.731Z,5.6
2023-03-15T08:13:33.466Z,5.6
2023-03-15T08:14:36.926Z,5.6
2023-03-15T08:15:40.014Z,5.6
2023-03-15T08:16:43.674Z,5.6
2023-03-15T08:17:48.182Z,5.6
2023-03-15T08:18:51.659Z,5.6
2023-03-15T08:19:55.355Z,5.7
2023-03-15T08:20:59.004Z,5.6
2023-03-15T08:22:02.407Z,5.6
2023-03-15T08:23:05.488Z,5.7
2023-03-15T08:24:08.555Z,5.6
2023-03-15T08:25:11.723Z,5.7
2023-03-15T08:26:15.032Z,5.7
2023-03-15T08:27:18.136Z,5.7
2023-03-15T08:28:21.410Z,5.8
2023-03-15T08:29:24.423Z,5.8
2023-03-15T08:30:28.699Z,5.9
2023-03-15T08:31:32.389Z,5.9
2023-03-15T08:32:36.360Z,5.9
2023-03-15T08:33:40.860Z,6
2023-03-15T08:34:43.979Z,6.1
2023-03-15T08:35:47.368Z,6.1
2023-03-15T08:36:50.970Z,6.2
2023-03-15T08:37:55.243Z,6.3
2023-03-15T08:38:58.237Z,6.3
2023-03-15T08:40:02.997Z,6.4
2023-03-15T08:41:06.672Z,6.5
2023-03-15T08:42:09.221Z,6.5
2023-03-15T08:43:12.071Z,6.6
2023-03-15T08:44:15.589Z,6.7
2023-03-15T08:45:19.205Z,6.7
2023-03-15T08:46:22.294Z,6.8
2023-03-15T08:47:25.596Z,6.8
2023-03-15T08:48:28.920Z,6.9
2023-03-15T08:49:33.252Z,7
2023-03-15T08:50:36.242Z,7
2023-03-15T08:51:38.979Z,7.1
2023-03-15T08:52:42.733Z,7.2
2023-03-15T08:53:45.864Z,7.2
2023-03-15T08:54:48.725Z,7.3
2023-03-15T08:55:52.091Z,7.3
2023-03-15T08:56:55.536Z,7.3
2023-03-15T08:57:58.602Z,7.2
2023-03-15T08:59:02.714Z,7.2
2023-03-15T09:00:05.796Z,7.1
2023-03-15T09:01:09.377Z,7.1
2023-03-15T09:02:13.747Z,7
2023-03-15T09:03:17.352Z,7
2023-03-15T09:04:21.267Z,7
2023-03-15T09:05:25.621Z,6.9
2023-03-15T09:06:28.974Z,6.8
2023-03-15T09:07:32.619Z,6.8
2023-03-15T09:08:35.734Z,6.8
2023-03-15T09:09:39.240Z,6.8
2023-03-15T09:10:42.982Z,6.8
2023-03-15T09:11:46.359Z,6.7
2023-03-15T09:12:49.685Z,6.7
2023-03-15T09:13:53.083Z,6.6
2023-03-15T09:14:56.427Z,6.6
2023-03-15T09:15:59.775Z,6.5
2023-03-15T09:17:03.136Z,6.5
2023-03-15T09:18:06.842Z,6.4
2023-03-15T09:19:09.761Z,6.4
2023-03-15T09:20:13.213Z,6.3
2023-03-15T09:21:17.486Z,6.3
2023-03-15T09:22:40.049Z,6.2
2023-03-15T09:23:44.023Z,6.2
2023-03-15T09:24:51.728Z,6.2
2023-03-15T09:25:54.953Z,6.2
2023-03-15T09:26:58.024Z,6.2
2023-03-15T09:28:01.523Z,6.1
2023-03-15T09:29:04.716Z,6.2
2023-03-15T09:30:07.772Z,6.1
2023-03-15T09:31:11.029Z,6.1
2023-03-15T09:32:14.051Z,6.1
2023-03-15T09:33:17.736Z,6.1
2023-03-15T09:34:25.333Z,6.2
2023-03-15T09:35:45.294Z,6.2
2023-03-15T09:36:49.770Z,6.3
2023-03-15T09:37:53.149Z,6.3
2023-03-15T09:38:56.017Z,6.4
2023-03-15T09:39:58.733Z,6.5
2023-03-15T09:41:02.150Z,6.6
2023-03-15T09:42:07.391Z,6.7
2023-03-15T09:43:10.797Z,6.8
2023-03-15T09:44:14.320Z,6.9
2023-03-15T09:45:17.686Z,7
2023-03-15T09:46:21.405Z,7
2023-03-15T09:47:24.993Z,7.1
2023-03-15T09:48:27.445Z,7.1
2023-03-15T09:49:30.023Z,7.1
2023-03-15T09:50:33.159Z,7.2
2023-03-15T09:51:36.335Z,7.2
2023-03-15T09:52:40.551Z,7.2
2023-03-15T09:53:44.598Z,7.2
2023-03-15T09:54:48.632Z,7.3
2023-03-15T09:55:52.067Z,7.4
2023-03-15T09:56:54.853Z,7.4
2023-03-15T09:57:57.768Z,7.5
2023-03-15T09:59:01.566Z,7.6
2023-03-15T10:00:03.999Z,7.7
2023-03-15T10:01:07.082Z,7.8
2023-03-15T10:02:11.385Z,7.9
2023-03-15T10:03:14.728Z,8
2023-03-15T10:04:17.792Z,8.1
2023-03-15T10:05:20.614Z,8.2
2023-03-15T10:06:23.747Z,8.3
2023-03-15T10:07:27.064Z,8.3
2023-03-15T10:08:31.194Z,8.4
2023-03-15T10:09:34.413Z,8.5
2023-03-15T10:10:37.517Z,8.6
2023-03-15T10:11:41.320Z,8.7
2023-03-15T10:12:45.388Z,8.9
2023-03-15T10:13:49.025Z,8.9
2023-03-15T10:14:52.489Z,9.1
2023-03-15T10:15:56.309Z,9.1
2023-03-15T10:16:59.770Z,9.2
2023-03-15T10:18:02.885Z,9.3
2023-03-15T10:19:06.572Z,9.3
2023-03-15T10:20:09.799Z,9.4
2023-03-15T10:21:13.158Z,9.4
2023-03-15T10:22:16.219Z,9.5
2023-03-15T10:23:20.365Z,9.6
2023-03-15T10:24:24.492Z,9.7
2023-03-15T10:25:28.185Z,9.8
2023-03-15T10:26:31.916Z,9.8
2023-03-15T10:27:34.820Z,10
2023-03-15T10:28:38.279Z,10.1
2023-03-15T10:29:42.001Z,10.1
2023-03-15T10:30:45.443Z,10.3
2023-03-15T10:31:49.352Z,10.4
2023-03-15T10:32:53.096Z,10.5
2023-03-15T10:33:56.377Z,10.7
2023-03-15T10:35:00.043Z,10.8
2023-03-15T10:36:12.461Z,10.9
2023-03-15T10:37:16.118Z,10.9
2023-03-15T10:38:19.202Z,11
2023-03-15T10:39:23.301Z,11
2023-03-15T10:40:27.463Z,11.1
2023-03-15T10:41:30.896Z,11.1
2023-03-15T10:42:33.348Z,11.1
2023-03-15T10:43:36.436Z,11
2023-03-15T10:44:39.524Z,11
2023-03-15T10:45:43.144Z,11
2023-03-15T10:46:46.221Z,10.9
2023-03-15T10:48:01.529Z,10.9
2023-03-15T10:49:04.451Z,10.8
2023-03-15T10:50:08.215Z,10.8
2023-03-15T10:51:13.138Z,10.8
2023-03-15T10:52:16.227Z,10.9
2023-03-15T10:53:19.681Z,10.9
2023-03-15T10:54:22.894Z,11
2023-03-15T10:55:26.337Z,11
2023-03-15T10:56:30.592Z,11
2023-03-15T10:57:34.114Z,11
2023-03-15T10:58:37.692Z,11
2023-03-15T10:59:40.810Z,11
2023-03-15T11:00:44.800Z,11
2023-03-15T11:01:47.705Z,11.1
2023-03-15T11:02:51.409Z,11.1
2023-03-15T11:03:55.297Z,11.2
2023-03-15T11:04:58.371Z,11.2
2023-03-15T11:06:01.760Z,11.3
2023-03-15T11:07:04.888Z,11.3
2023-03-15T11:08:08.235Z,11.2
2023-03-15T11:09:12.044Z,11.1
2023-03-15T11:10:15.049Z,11.1
2023-03-15T11:11:18.551Z,11
2023-03-15T11:12:22.736Z,10.9
2023-03-15T11:13:26.449Z,10.9
2023-03-15T11:14:29.884Z,10.9
2023-03-15T11:15:33.508Z,10.9
2023-03-15T11:16:37.095Z,10.9
2023-03-15T11:17:40.768Z,10.9
2023-03-15T11:18:43.828Z,11
2023-03-15T11:19:46.840Z,11
2023-03-15T11:20:50.844Z,11.1
2023-03-15T11:21:54.222Z,11.2
2023-03-15T11:22:56.951Z,11.2
2023-03-15T11:23:59.944Z,11.4
2023-03-15T11:25:03.297Z,11.5
2023-03-15T11:26:06.401Z,11.5
2023-03-15T11:27:11.266Z,11.5
2023-03-15T11:28:15.250Z,11.5
2023-03-15T11:29:18.527Z,11.5
2023-03-15T11:30:21.287Z,11.5
2023-03-15T11:31:24.460Z,11.5
2023-03-15T11:32:27.591Z,11.4
2023-03-15T11:33:30.882Z,11.4
2023-03-15T11:34:33.945Z,11.4
2023-03-15T11:35:37.413Z,11.3
2023-03-15T11:36:39.692Z,11.3
2023-03-15T11:37:42.424Z,11.3
2023-03-15T11:38:45.339Z,11.2
2023-03-15T11:39:56.123Z,11.2
2023-03-15T11:41:19.707Z,11.2
2023-03-15T11:42:23.466Z,11.3
2023-03-15T11:43:27.314Z,11.3
2023-03-15T11:44:30.329Z,11.4
2023-03-15T11:45:34.152Z,11.4
2023-03-15T11:46:38.277Z,11.4
2023-03-15T11:47:42.015Z,11.5
2023-03-15T11:48:45.326Z,11.6
2023-03-15T11:49:48.429Z,11.7
2023-03-15T11:50:51.449Z,11.8
2023-03-15T11:51:54.874Z,11.8
2023-03-15T11:52:58.241Z,11.9
2023-03-15T11:54:01.689Z,11.9
2023-03-15T11:55:04.577Z,11.9
2023-03-15T11:56:07.917Z,12
2023-03-15T11:57:10.991Z,12
2023-03-15T11:58:14.424Z,11.9
2023-03-15T11:59:18.569Z,11.9
2023-03-15T12:00:22.142Z,11.9
2023-03-15T12:01:25.266Z,11.8
2023-03-15T12:02:29.123Z,11.8
2023-03-15T12:03:33.040Z,11.7
2023-03-15T12:04:36.703Z,11.7
2023-03-15T12:05:39.810Z,11.6
2023-03-15T12:06:43.205Z,11.6
2023-03-15T12:07:46.924Z,11.5
2023-03-15T12:08:50.417Z,11.4
2023-03-15T12:09:53.827Z,11.3
2023-03-15T12:10:57.069Z,11.2
2023-03-15T12:12:00.359Z,11
2023-03-15T12:13:03.650Z,10.9
2023-03-15T12:14:07.768Z,10.8
2023-03-15T12:15:12.074Z,10.8
2023-03-15T12:16:15.825Z,10.8
2023-03-15T12:17:18.678Z,10.8
2023-03-15T12:18:21.755Z,10.8
2023-03-15T12:19:25.615Z,10.8
2023-03-15T12:20:29.410Z,10.8
2023-03-15T12:21:32.808Z,10.8
2023-03-15T12:22:36.312Z,10.8
2023-03-15T12:23:40.054Z,10.8
2023-03-15T12:24:42.886Z,10.7
2023-03-15T12:25:55.847Z,10.8
2023-03-15T12:26:58.964Z,10.8
2023-03-15T12:28:01.409Z,11
2023-03-15T12:29:04.779Z,11.1
2023-03-15T12:30:06.994Z,11.3
2023-03-15T12:31:11.327Z,11.4
2023-03-15T12:32:15.163Z,11.5
2023-03-15T12:33:18.559Z,11.7
2023-03-15T12:34:21.641Z,11.8
2023-03-15T12:35:25.018Z,11.9
2023-03-15T12:36:28.306Z,11.9
2023-03-15T12:37:31.474Z,12
2023-03-15T12:38:34.208Z,11.9
2023-03-15T12:39:37.761Z,11.9
2023-03-15T12:40:41.084Z,11.8
2023-03-15T12:41:44.182Z,11.7
2023-03-15T12:42:47.089Z,11.7
2023-03-15T12:43:50.789Z,11.6
2023-03-15T12:44:54.209Z,11.5
2023-03-15T12:45:57.848Z,11.4
2023-03-15T12:47:01.869Z,11.4
2023-03-15T12:48:05.061Z,11.3
2023-03-15T12:49:09.160Z,11.2
2023-03-15T12:50:11.921Z,11.2
2023-03-15T12:51:15.416Z,11.1
2023-03-15T12:52:18.284Z,11
2023-03-15T12:53:22.006Z,11
2023-03-15T12:54:25.310Z,10.9
2023-03-15T12:55:28.762Z,11
2023-03-15T12:56:31.862Z,10.9
2023-03-15T12:57:35.263Z,11
2023-03-15T12:58:38.439Z,10.9
2023-03-15T12:59:42.224Z,10.9
2023-03-15T13:00:45.364Z,10.9
2023-03-15T13:01:48.949Z,10.9
2023-03-15T13:02:53.612Z,10.8
2023-03-15T13:03:57.479Z,10.8
2023-03-15T13:05:01.506Z,10.7
2023-03-15T13:06:05.419Z,10.6
2023-03-15T13:07:08.580Z,10.6
2023-03-15T13:08:11.917Z,10.5
2023-03-15T13:09:15.602Z,10.5
2023-03-15T13:10:18.593Z,10.5
2023-03-15T13:11:22.052Z,10.5
2023-03-15T13:12:25.403Z,10.5
2023-03-15T13:13:28.760Z,10.4
2023-03-15T13:14:32.200Z,10.4
2023-03-15T13:15:35.800Z,10.3
2023-03-15T13:16:43.093Z,10.3
2023-03-15T13:17:46.033Z,10.3
2023-03-15T13:18:50.214Z,10.4
2023-03-15T13:19:53.672Z,10.4
2023-03-15T13:20:57.027Z,10.4
2023-03-15T13:22:00.758Z,10.3
2023-03-15T13:23:04.027Z,10.3
2023-03-15T13:24:06.739Z,10.3
2023-03-15T13:25:10.476Z,10.2
2023-03-15T13:26:13.923Z,10.2
2023-03-15T13:27:17.674Z,10.1
2023-03-15T13:28:21.307Z,10.1
2023-03-15T13:29:24.768Z,10
2023-03-15T13:30:28.393Z,9.9
2023-03-15T13:31:32.852Z,9.9
2023-03-15T13:32:36.273Z,9.8
2023-03-15T13:33:39.618Z,9.7
2023-03-15T13:34:43.765Z,9.5
2023-03-15T13:35:46.986Z,9.4
2023-03-15T13:36:49.500Z,9.3
2023-03-15T13:37:52.308Z,9.1
2023-03-15T13:38:55.990Z,8.9
2023-03-15T13:39:59.751Z,8.8
2023-03-15T13:41:03.430Z,8.6
2023-03-15T13:42:06.868Z,8.5
2023-03-15T13:43:09.034Z,8.4
2023-03-15T13:44:12.429Z,8.4
2023-03-15T13:45:14.935Z,8.3
2023-03-15T13:46:18.861Z,8.2
2023-03-15T13:47:22.011Z,8.2
2023-03-15T13:48:25.695Z,8.3
2023-03-15T13:49:28.953Z,8.3
2023-03-15T13:50:33.289Z,8.4
2023-03-15T13:51:36.698Z,8.6
2023-03-15T13:52:40.338Z,8.8
2023-03-15T13:53:51.227Z,9
2023-03-15T13:54:55.194Z,9.2
2023-03-15T13:55:58.206Z,9.4
2023-03-15T13:57:01.909Z,9.6
2023-03-15T13:58:05.033Z,9.8
2023-03-15T13:59:08.840Z,10
2023-03-15T14:00:11.761Z,10.2
2023-03-15T14:01:15.284Z,10.2
2023-03-15T14:02:18.979Z,10.3
2023-03-15T14:03:22.086Z,10.3
2023-03-15T14:04:25.439Z,10.3
2023-03-15T14:05:28.356Z,10.3
2023-03-15T14:06:32.562Z,10.3
2023-03-15T14:07:36.228Z,10.3
2023-03-15T14:08:39.233Z,10.3
2023-03-15T14:09:42.788Z,10.2
2023-03-15T14:10:46.159Z,10.1
2023-03-15T14:11:50.273Z,10.1
2023-03-15T14:12:54.271Z,10
2023-03-15T14:13:57.105Z,9.9
2023-03-15T14:15:00.210Z,9.8
2023-03-15T14:16:03.792Z,9.8
2023-03-15T14:17:07.060Z,9.7
2023-03-15T14:18:10.248Z,9.6
2023-03-15T14:19:13.713Z,9.5
2023-03-15T14:20:17.074Z,9.4
2023-03-15T14:21:21.184Z,9.4
2023-03-15T14:22:25.956Z,9.3
2023-03-15T14:23:29.339Z,9.3
2023-03-15T14:24:32.655Z,9.3
2023-03-15T14:25:36.165Z,9.2
2023-03-15T14:26:39.708Z,9.2
2023-03-15T14:27:43.724Z,9.2
2023-03-15T14:28:46.732Z,9.1
2023-03-15T14:29:50.119Z,9.1
2023-03-15T14:30:53.203Z,9
2023-03-15T14:31:56.870Z,9
2023-03-15T14:33:00.380Z,9